createdAt,value
2023-03-20T00:02:22.597Z,8.21
2023-03-20T00:04:50.418Z,8.20
2023-03-20T00:07:17.443Z,8.20
2023-03-20T00:09:44.759Z,8.20
2023-03-20T00:12:26.367Z,8.16
2023-03-20T00:14:53.968Z,8.13
2023-03-20T00:17:21.461Z,8.10
2023-03-20T00:19:49.542Z,8.08
2023-03-20T00:22:16.688Z,8.06
2023-03-20T00:24:44.103Z,8.04
2023-03-20T00:27:15.757Z,8.00
2023-03-20T00:29:44.441Z,8.01
2023-03-20T00:32:13.521Z,7.94
2023-03-20T00:34:41.542Z,7.88
2023-03-20T00:37:09.768Z,7.87
2023-03-20T00:39:36.995Z,7.85
2023-03-20T00:42:06.638Z,7.88
2023-03-20T00:44:41.459Z,7.83
2023-03-20T00:47:23.279Z,7.80
2023-03-20T00:49:54.500Z,7.76
2023-03-20T00:52:22.760Z,7.75
2023-03-20T00:54:52.636Z,7.73
2023-03-20T00:57:26.544Z,7.72
2023-03-20T01:00:06.806Z,7.64
2023-03-20T01:02:34.611Z,7.62
2023-03-20T01:05:05.536Z,7.56
2023-03-20T01:07:32.570Z,7.53
2023-03-20T01:09:59.893Z,7.52
2023-03-20T01:12:28.261Z,7.52
2023-03-20T01:14:58.481Z,7.48
2023-03-20T01:17:28.231Z,7.46
2023-03-20T01:19:55.820Z,7.45
2023-03-20T01:22:23.426Z,7.42
2023-03-20T01:24:50.880Z,7.40
2023-03-20T01:27:20.271Z,7.37
2023-03-20T01:29:47.972Z,7.42
2023-03-20T01:32:19.995Z,7.36
2023-03-20T01:34:53.139Z,7.31
2023-03-20T01:37:27.563Z,7.26
2023-03-20T01:39:58.400Z,7.21
2023-03-20T01:42:26.284Z,7.22
2023-03-20T01:44:53.630Z,7.19
2023-03-20T01:47:25.875Z,7.18
2023-03-20T01:50:23.931Z,7.16
2023-03-20T01:53:12.004Z,7.12
2023-03-20T01:55:47.103Z,7.05
2023-03-20T01:58:31.563Z,7.06
2023-03-20T02:01:00.114Z,7.02
2023-03-20T02:03:27.452Z,7.00
2023-03-20T02:06:13.340Z,6.98
2023-03-20T02:09:12.093Z,6.89
2023-03-20T02:11:46.279Z,6.87
2023-03-20T02:14:14.975Z,6.83
2023-03-20T02:17:08.649Z,6.82
2023-03-20T02:20:30.045Z,6.80
2023-03-20T02:23:29.592Z,6.77
2023-03-20T02:26:28.159Z,6.77
2023-03-20T02:29:23.783Z,6.79
2023-03-20T02:32:25.007Z,6.76
2023-03-20T02:35:28.362Z,6.73
2023-03-20T02:38:15.621Z,6.74
2023-03-20T02:41:25.200Z,6.67
2023-03-20T02:44:22.883Z,6.63
2023-03-20T02:47:00.068Z,6.61
2023-03-20T02:50:01.341Z,6.57
2023-03-20T02:53:09.794Z,6.57
2023-03-20T02:55:44.008Z,6.55
2023-03-20T02:58:32.243Z,6.55
2023-03-20T03:01:11.997Z,6.51
2023-03-20T03:03:48.543Z,6.48
2023-03-20T03:06:28.074Z,6.46
2023-03-20T03:09:05.659Z,6.43
2023-03-20T03:11:45.010Z,6.39
2023-03-20T03:14:24.389Z,6.39
2023-03-20T03:16:54.176Z,6.37
2023-03-20T03:19:27.985Z,6.38
2023-03-20T03:21:55.562Z,6.39
2023-03-20T03:24:41.419Z,6.36
2023-03-20T03:27:29.494Z,6.32
2023-03-20T03:30:27.999Z,6.33
2023-03-20T03:33:37.221Z,6.28
2023-03-20T03:36:31.358Z,6.27
2023-03-20T03:39:24.595Z,6.24
2023-03-20T03:42:25.035Z,6.23
2023-03-20T03:45:14.721Z,6.19
2023-03-20T03:47:55.854Z,6.14
2023-03-20T03:50:48.901Z,6.15
2023-03-20T03:53:32.874Z,6.10
2023-03-20T03:56:06.843Z,6.09
2023-03-20T03:58:43.953Z,6.06
2023-03-20T04:01:14.360Z,6.02
2023-03-20T04:03:58.269Z,6.02
2023-03-20T04:06:27.532Z,6.01
2023-03-20T04:08:55.205Z,5.95
2023-03-20T04:11:25.988Z,5.94
2023-03-20T04:13:53.491Z,5.91
2023-03-20T04:16:23.554Z,5.89
2023-03-20T04:18:52.306Z,5.89
2023-03-20T04:21:19.918Z,5.87
2023-03-20T04:23:47.439Z,5.87
2023-03-20T04:26:15.020Z,5.86
2023-03-20T04:28:42.404Z,5.88
2023-03-20T04:31:28.649Z,5.85
2023-03-20T04:34:18.075Z,5.84
2023-03-20T04:37:00.930Z,5.83
2023-03-20T04:39:42.954Z,5.82
2023-03-20T04:42:11.722Z,5.79
2023-03-20T04:44:38.891Z,5.80
2023-03-20T04:47:06.524Z,5.78
2023-03-20T04:49:36.551Z,5.76
2023-03-20T04:52:04.116Z,5.75
2023-03-20T04:54:41.210Z,5.72
2023-03-20T04:57:08.316Z,5.74
2023-03-20T04:59:36.664Z,5.72
2023-03-20T05:02:04.074Z,5.74
2023-03-20T05:04:31.350Z,5.74
2023-03-20T05:06:58.522Z,5.72
2023-03-20T05:09:32.880Z,5.71
2023-03-20T05:12:03.112Z,5.71
2023-03-20T05:14:49.082Z,5.69
2023-03-20T05:17:37.075Z,5.68
2023-03-20T05:20:30.836Z,5.67
2023-03-20T05:23:07.593Z,5.64
2023-03-20T05:25:55.640Z,5.66
2023-03-20T05:28:41.477Z,5.69
2023-03-20T05:31:23.867Z,5.70
2023-03-20T05:34:00.268Z,5.70
2023-03-20T05:36:42.851Z,5.70
2023-03-20T05:39:32.179Z,5.69
2023-03-20T05:42:19.870Z,5.70
2023-03-20T05:45:17.393Z,5.72
2023-03-20T05:48:03.523Z,5.73
2023-03-20T05:50:36.509Z,5.74
2023-03-20T05:53:38.982Z,5.77
2023-03-20T05:56:25.979Z,5.76
2023-03-20T05:59:12.643Z,5.78
2023-03-20T06:02:00.502Z,5.79
2023-03-20T06:04:34.994Z,5.79
2023-03-20T06:07:16.781Z,5.82
2023-03-20T06:09:49.174Z,5.84
2023-03-20T06:12:17.103Z,5.85
2023-03-20T06:14:44.280Z,5.87
2023-03-20T06:17:12.259Z,5.90
2023-03-20T06:19:39.532Z,5.96
2023-03-20T06:22:06.678Z,6.04
2023-03-20T06:24:35.385Z,6.13
2023-03-20T06:27:02.386Z,6.24
2023-03-20T06:29:30.252Z,6.36
2023-03-20T06:32:09.332Z,6.48
2023-03-20T06:34:37.509Z,6.58
2023-03-20T06:37:04.493Z,6.72
2023-03-20T06:39:33.094Z,6.84
2023-03-20T06:42:00.274Z,6.97
2023-03-20T06:44:28.724Z,7.07
2023-03-20T06:47:11.722Z,7.13
2023-03-20T06:49:39.239Z,7.16
2023-03-20T06:52:10.386Z,7.24
2023-03-20T06:54:38.504Z,7.32
2023-03-20T06:57:05.435Z,7.36
2023-03-20T06:59:32.688Z,7.38
2023-03-20T07:02:00.177Z,7.43
2023-03-20T07:04:27.976Z,7.63
2023-03-20T07:06:59.035Z,7.76
2023-03-20T07:09:26.888Z,7.86
2023-03-20T07:11:54.397Z,7.96
2023-03-20T07:14:23.122Z,8.04
2023-03-20T07:17:03.696Z,8.13
2023-03-20T07:19:33.231Z,8.24
2023-03-20T07:22:04.672Z,8.35
2023-03-20T07:24:38.299Z,8.45
2023-03-20T07:27:05.435Z,8.60
2023-03-20T07:29:34.641Z,8.72
2023-03-20T07:32:04.062Z,8.78
2023-03-20T07:34:36.811Z,8.89
2023-03-20T07:37:04.984Z,8.99
2023-03-20T07:39:33.855Z,9.14
2023-03-20T07:42:21.081Z,9.41
2023-03-20T07:44:58.530Z,9.48
2023-03-20T07:47:25.962Z,9.64
2023-03-20T07:49:53.447Z,9.72
2023-03-20T07:52:20.447Z,9.79
2023-03-20T07:54:47.851Z,9.91
2023-03-20T07:57:14.860Z,9.96
2023-03-20T07:59:42.082Z,10.00
2023-03-20T08:02:16.215Z,10.06
2023-03-20T08:04:44.993Z,10.10
2023-03-20T08:07:12.690Z,10.22
2023-03-20T08:09:40.398Z,10.25
2023-03-20T08:12:07.619Z,10.32
2023-03-20T08:14:35.260Z,10.40
2023-03-20T08:17:14.398Z,10.63
2023-03-20T08:19:42.420Z,10.78
2023-03-20T08:22:09.750Z,10.75
2023-03-20T08:24:37.092Z,10.92
2023-03-20T08:27:04.546Z,11.10
2023-03-20T08:29:31.938Z,11.22
2023-03-20T08:31:58.980Z,11.41
2023-03-20T08:34:26.385Z,11.54
2023-03-20T08:36:53.647Z,11.72
2023-03-20T08:39:21.862Z,11.91
2023-03-20T08:41:48.771Z,12.06
2023-03-20T08:44:17.219Z,12.28
2023-03-20T08:46:46.246Z,12.53
2023-03-20T08:49:14.117Z,12.78
2023-03-20T08:51:41.384Z,12.87
2023-03-20T08:54:08.832Z,13.00
2023-03-20T08:56:35.863Z,13.19
2023-03-20T08:59:03.712Z,13.22
2023-03-20T09:01:46.260Z,13.32
2023-03-20T09:04:15.960Z,13.30
2023-03-20T09:06:42.862Z,13.33
2023-03-20T09:09:10.573Z,13.57
2023-03-20T09:11:37.694Z,13.87
2023-03-20T09:14:04.957Z,14.04
2023-03-20T09:16:31.983Z,13.97
2023-03-20T09:18:59.407Z,13.99
2023-03-20T09:21:26.434Z,14.10
2023-03-20T09:23:53.668Z,14.04
2023-03-20T09:26:20.695Z,14.07
2023-03-20T09:28:47.980Z,14.03
2023-03-20T09:31:15.478Z,13.86
2023-03-20T09:33:42.837Z,13.92
2023-03-20T09:36:11.821Z,14.24
2023-03-20T09:38:41.910Z,14.26
2023-03-20T09:41:45.880Z,14.28
2023-03-20T09:44:45.986Z,14.44
2023-03-20T09:47:38.492Z,14.57
2023-03-20T09:50:42.381Z,14.80
2023-03-20T09:53:33.611Z,15.02
2023-03-20T09:56:04.404Z,15.07
2023-03-20T09:58:37.644Z,15.01
2023-03-20T10:01:11.570Z,15.02
2023-03-20T10:03:55.707Z,15.07
2023-03-20T10:06:23.433Z,15.14
2023-03-20T10:08:51.884Z,15.16
2023-03-20T10:11:34.532Z,15.19
2023-03-20T10:14:40.752Z,15.51
2023-03-20T10:17:39.860Z,15.56
2023-03-20T10:20:33.396Z,15.79
2023-03-20T10:23:33.196Z,16.01
2023-03-20T10:26:10.193Z,16.05
2023-03-20T10:28:53.987Z,16.02
2023-03-20T10:32:12.528Z,16.22
2023-03-20T10:35:04.448Z,16.36
2023-03-20T10:38:06.731Z,16.32
2023-03-20T10:40:39.411Z,16.31
2023-03-20T10:43:21.503Z,16.43
2023-03-20T10:45:57.327Z,16.44
2023-03-20T10:48:44.291Z,16.46
2023-03-20T10:51:19.933Z,16.44
2023-03-20T10:53:56.969Z,16.47
2023-03-20T10:56:42.167Z,16.47
2023-03-20T10:59:26.193Z,16.51
2023-03-20T11:01:54.015Z,16.51
2023-03-20T11:04:21.637Z,16.59
2023-03-20T11:07:06.463Z,16.75
2023-03-20T11:09:33.888Z,16.69
2023-03-20T11:12:03.040Z,16.47
2023-03-20T11:14:39.308Z,16.27
2023-03-20T11:17:07.209Z,16.12
2023-03-20T11:19:37.640Z,16.04
2023-03-20T11:22:26.600Z,15.93
2023-03-20T11:25:03.915Z,15.80
2023-03-20T11:27:34.935Z,15.67
2023-03-20T11:30:15.778Z,15.62
2023-03-20T11:32:54.830Z,15.61
2023-03-20T11:35:27.478Z,15.59
2023-03-20T11:38:13.676Z,15.64
2023-03-20T11:40:41.286Z,15.54
2023-03-20T11:43:18.592Z,15.59
2023-03-20T11:45:54.165Z,15.58
2023-03-20T11:48:26.548Z,15.63
2023-03-20T11:51:07.274Z,15.74
2023-03-20T11:53:49.879Z,15.80
2023-03-20T11:56:30.284Z,15.85
2023-03-20T11:59:06.860Z,15.93
2023-03-20T12:01:48.924Z,15.99
2023-03-20T12:04:31.811Z,16.06
2023-03-20T12:07:16.784Z,16.04
2023-03-20T12:09:54.720Z,16.15
2023-03-20T12:12:37.499Z,16.35
2023-03-20T12:15:34.209Z,16.50
2023-03-20T12:18:14.330Z,16.62
2023-03-20T12:21:17.898Z,16.75
2023-03-20T12:23:56.985Z,16.78
2023-03-20T12:27:01.392Z,16.78
2023-03-20T12:29:54.611Z,16.75
2023-03-20T12:32:46.366Z,16.73
2023-03-20T12:35:27.785Z,16.73
2023-03-20T12:37:55.396Z,16.72
2023-03-20T12:40:37.595Z,16.69
2023-03-20T12:43:27.495Z,16.66
2023-03-20T12:46:20.867Z,16.74
2023-03-20T12:49:12.941Z,16.77
2023-03-20T12:52:23.388Z,16.70
2023-03-20T12:55:26.263Z,16.73
2023-03-20T12:58:17.229Z,16.72
2023-03-20T13:01:00.010Z,16.69
2023-03-20T13:04:24.645Z,16.72
2023-03-20T13:06:56.382Z,16.66
2023-03-20T13:10:09.094Z,16.62
2023-03-20T13:13:18.431Z,16.61
2023-03-20T13:16:14.352Z,16.69
2023-03-20T13:19:07.887Z,16.69
2023-03-20T13:21:56.659Z,16.65
2023-03-20T13:25:13.721Z,16.66
2023-03-20T13:27:52.221Z,16.71
2023-03-20T13:30:56.736Z,16.69
2023-03-20T13:34:00.947Z,16.80
2023-03-20T13:37:23.908Z,16.96
2023-03-20T13:40:14.291Z,17.20
2023-03-20T13:42:51.039Z,17.69
2023-03-20T13:45:41.350Z,17.97
2023-03-20T13:48:26.673Z,18.11
2023-03-20T13:51:19.395Z,18.64
2023-03-20T13:54:08.409Z,18.95
2023-03-20T13:56:51.333Z,18.96
2023-03-20T14:00:01.248Z,19.05
2023-03-20T14:02:50.752Z,19.49
2023-03-20T14:05:23.281Z,19.45
2023-03-20T14:07:56.338Z,19.72
2023-03-20T14:10:24.045Z,19.76
2023-03-20T14:13:01.985Z,19.64
2023-03-20T14:15:38.677Z,19.37
2023-03-20T14:18:17.574Z,19.21
2023-03-20T14:21:02.976Z,19.12
2023-03-20T14:23:40.046Z,18.80
2023-03-20T14:26:23.491Z,18.59
2023-03-20T14:29:21.034Z,18.39
2023-03-20T14:31:52.245Z,18.28
2023-03-20T14:34:24.709Z,18.19
2023-03-20T14:37:27.189Z,18.04
2023-03-20T14:40:22.412Z,17.92
2023-03-20T14:43:14.093Z,17.71
2023-03-20T14:46:08.380Z,17.49
2023-03-20T14:48:45.880Z,17.34
2023-03-20T14:51:39.382Z,17.21
2023-03-20T14:58:43.703Z,16.99
2023-03-20T15:01:22.304Z,16.90
2023-03-20T15:03:57.609Z,16.82
2023-03-20T15:06:29.077Z,16.73
2023-03-20T15:09:08.766Z,16.70
2023-03-20T15:11:38.182Z,16.60
2023-03-20T15:14:10.293Z,16.54
2023-03-20T15:16:38.309Z,16.49
2023-03-20T15:19:20.447Z,16.42
2023-03-20T15:21:49.463Z,16.35
2023-03-20T15:24:29.792Z,16.28
2023-03-20T15:27:01.969Z,16.23
2023-03-20T15:29:33.130Z,16.19
2023-03-20T15:32:14.102Z,16.15
2023-03-20T15:34:44.429Z,16.12
2023-03-20T15:37:17.429Z,16.06
2023-03-20T15:39:56.890Z,16.00
2023-03-20T15:42:27.942Z,15.95
2023-03-20T15:44:56.771Z,15.88
2023-03-20T15:47:26.210Z,15.80
2023-03-20T15:50:01.056Z,15.75
2023-03-20T15:52:39.189Z,15.74
2023-03-20T15:55:16.285Z,15.70
2023-03-20T15:57:59.747Z,15.68
2023-03-20T16:00:31.973Z,15.63
2023-03-20T16:03:05.251Z,15.60
2023-03-20T16:05:33.356Z,15.56
2023-03-20T16:08:27.136Z,15.55
2023-03-20T16:11:05.978Z,15.53
2023-03-20T16:13:42.390Z,15.51
2023-03-20T16:16:17.831Z,15.49
2023-03-20T16:18:49.787Z,15.46
2023-03-20T16:21:30.610Z,15.42
2023-03-20T16:24:02.315Z,15.39
2023-03-20T16:26:29.794Z,15.34
2023-03-20T16:29:05.247Z,15.25
2023-03-20T16:31:36.206Z,15.23
2023-03-20T16:34:21.677Z,15.21
2023-03-20T16:37:00.143Z,15.17
2023-03-20T16:39:31.501Z,15.13
2023-03-20T16:42:12.000Z,15.09
2023-03-20T16:44:42.284Z,15.07
2023-03-20T16:47:21.605Z,15.05
2023-03-20T16:50:06.725Z,15.04
2023-03-20T16:52:40.388Z,15.01
2023-03-20T16:55:17.724Z,14.99
2023-03-20T16:57:50.554Z,14.96
2023-03-20T17:00:30.127Z,14.93
2023-03-20T17:03:26.292Z,14.90
2023-03-20T17:06:27.338Z,14.84
2023-03-20T17:09:20.781Z,14.79
2023-03-20T17:11:57.827Z,14.75
2023-03-20T17:14:25.751Z,14.69
2023-03-20T17:16:55.526Z,14.62
2023-03-20T17:19:24.637Z,14.51
2023-03-20T17:21:53.316Z,14.38
2023-03-20T17:24:21.496Z,14.33
2023-03-20T17:26:56.778Z,14.32
2023-03-20T17:29:24.428Z,14.29
2023-03-20T17:31:52.746Z,14.26
2023-03-20T17:34:20.443Z,14.24
2023-03-20T17:36:49.099Z,14.21
2023-03-20T17:39:21.750Z,14.18
2023-03-20T17:41:49.727Z,14.16
2023-03-20T17:44:26.341Z,14.12
2023-03-20T17:46:58.912Z,14.08
2023-03-20T17:49:27.746Z,14.04
2023-03-20T17:51:56.712Z,14.00
2023-03-20T17:54:23.948Z,13.96
2023-03-20T17:56:52.028Z,13.91
2023-03-20T17:59:20.145Z,13.87
2023-03-20T18:01:48.327Z,13.81
2023-03-20T18:04:16.248Z,13.76
2023-03-20T18:06:44.485Z,13.72
2023-03-20T18:09:14.874Z,13.70
2023-03-20T18:11:43.017Z,13.62
2023-03-20T18:14:12.491Z,13.58
2023-03-20T18:16:40.733Z,13.52
2023-03-20T18:19:29.484Z,13.47
2023-03-20T18:21:58.100Z,13.41
2023-03-20T18:24:26.474Z,13.36
2023-03-20T18:27:18.890Z,13.31
2023-03-20T18:29:46.157Z,13.26
2023-03-20T18:32:13.974Z,13.21
2023-03-20T18:34:42.071Z,13.17
2023-03-20T18:37:14.711Z,13.13
2023-03-20T18:39:41.910Z,13.08
2023-03-20T18:42:09.591Z,13.03
2023-03-20T18:44:37.146Z,12.99
2023-03-20T18:47:05.056Z,12.94
2023-03-20T18:49:38.831Z,12.90
2023-03-20T18:52:07.177Z,12.86
2023-03-20T18:54:34.867Z,12.80
2023-03-20T18:57:02.621Z,12.76
2023-03-20T18:59:30.073Z,12.72
2023-03-20T19:01:57.734Z,12.67
2023-03-20T19:04:32.469Z,12.63
2023-03-20T19:07:00.347Z,12.59
2023-03-20T19:09:27.612Z,12.54
2023-03-20T19:11:55.650Z,12.51
2023-03-20T19:14:23.814Z,12.46
2023-03-20T19:16:51.738Z,12.42
2023-03-20T19:19:19.073Z,12.39
2023-03-20T19:21:46.563Z,12.36
2023-03-20T19:24:13.766Z,12.31
2023-03-20T19:26:42.245Z,12.27
2023-03-20T19:29:14.087Z,12.24
2023-03-20T19:31:41.680Z,12.18
2023-03-20T19:34:36.791Z,12.13
2023-03-20T19:37:00.530Z,12.11
2023-03-20T19:39:27.695Z,12.06
2023-03-20T19:41:55.947Z,12.03
2023-03-20T19:44:23.686Z,12.01
2023-03-20T19:46:51.780Z,11.98
2023-03-20T19:49:33.207Z,11.94
2023-03-20T19:52:00.873Z,11.90
2023-03-20T19:54:28.605Z,11.88
2023-03-20T19:57:00.456Z,11.84
2023-03-20T19:59:29.120Z,11.80
2023-03-20T20:01:58.928Z,11.78
2023-03-20T20:04:27.021Z,11.75
2023-03-20T20:07:40.778Z,11.74
2023-03-20T20:09:48.181Z,11.70
2023-03-20T20:12:17.378Z,11.66
2023-03-20T20:14:44.764Z,11.65
2023-03-20T20:17:12.567Z,11.65
2023-03-20T20:19:54.389Z,11.64
2023-03-20T20:22:26.040Z,11.61
2023-03-20T20:24:54.804Z,11.61
2023-03-20T20:27:22.572Z,11.59
2023-03-20T20:29:53.274Z,11.59
2023-03-20T20:32:26.651Z,11.56
2023-03-20T20:40:32.335Z,11.49
2023-03-20T20:43:02.483Z,11.43
2023-03-20T20:45:34.655Z,11.39
2023-03-20T20:48:09.513Z,11.37
2023-03-20T20:50:36.862Z,11.35
2023-03-20T20:53:05.315Z,11.33
2023-03-20T20:55:32.830Z,11.35
2023-03-20T20:58:01.366Z,11.34
2023-03-20T21:00:48.526Z,11.30
2023-03-20T21:03:16.800Z,11.29
2023-03-20T21:05:44.460Z,11.26
2023-03-20T21:08:14.127Z,11.25
2023-03-20T21:10:45.358Z,11.24
2023-03-20T21:13:13.127Z,11.23
2023-03-20T21:15:42.207Z,11.20
2023-03-20T21:18:21.650Z,11.17
2023-03-20T21:20:49.445Z,11.15
2023-03-20T21:23:16.924Z,11.14
2023-03-20T21:25:47.728Z,11.11
2023-03-20T21:28:15.821Z,11.09
2023-03-20T21:31:05.957Z,11.05
2023-03-20T21:33:34.080Z,11.04
2023-03-20T21:36:03.125Z,11.03
2023-03-20T21:39:06.000Z,10.99
2023-03-20T21:41:19.355Z,10.96
2023-03-20T21:43:47.739Z,10.95
2023-03-20T21:58:17.535Z,10.72
2023-03-20T22:03:23.161Z,10.75
2023-03-20T22:17:55.930Z,10.40
2023-03-20T22:23:43.412Z,10.41
2023-03-20T22:29:35.119Z,10.39
2023-03-20T22:38:00.495Z,10.50
2023-03-20T22:40:48.837Z,10.57
2023-03-20T22:43:50.760Z,10.62
2023-03-20T22:46:05.651Z,10.65
2023-03-20T22:48:40.819Z,10.65
2023-03-20T22:51:08.976Z,10.65
2023-03-20T22:53:36.977Z,10.64
2023-03-20T22:56:04.864Z,10.64
2023-03-20T22:58:33.590Z,10.63
2023-03-20T23:01:02.959Z,10.62
2023-03-20T23:03:41.445Z,10.59
2023-03-20T23:06:28.675Z,10.59
2023-03-20T23:08:59.660Z,10.60
2023-03-20T23:11:30.996Z,10.58
2023-03-20T23:14:00.842Z,10.59
2023-03-20T23:16:28.144Z,10.61
2023-03-20T23:18:56.899Z,10.62
2023-03-20T23:21:25.692Z,10.62
2023-03-20T23:23:53.877Z,10.61
2023-03-20T23:26:22.296Z,10.62
2023-03-20T23:28:53.420Z,10.61
2023-03-20T23:31:25.577Z,10.60
2023-03-20T23:33:58.102Z,10.60
2023-03-20T23:36:36.761Z,10.60
2023-03-20T23:39:10.220Z,10.61
2023-03-20T23:44:26.543Z,10.59
2023-03-20T23:46:55.626Z,10.60
2023-03-20T23:49:23.961Z,10.59
2023-03-20T23:51:51.339Z,10.58
2023-03-20T23:54:19.634Z,10.56
2023-03-20T23:56:47.753Z,10.57
2023-03-20T23:59:21.466Z,10.56
